Terminal Aerodrome Forecast
Issued by NWS Jackson, MS

Home | Current Version | Previous Version | Text Only | Print | Product List | Glossary On
Versions: 1 2 3 4 5 6 7 8 9 10 11 12 13 14 15
062
FTUS44 KJAN 300549 RRA
TAFHBG
TAF
KHBG 300549Z 3006/3106 17007KT P6SM BKN015 OVC025
     FM301000 17007KT P6SM VCTS BKN025CB BKN250
     FM301500 18011KT 5SM SHRA VCTS BKN025CB OVC090
     FM301800 19012KT P6SM SHRA VCTS BKN050CB OVC090
     FM310100 19008KT P6SM VCSH SCT250=

USA.gov is the U.S. government's official web portal to all federal, state and local government web resources and services.